createdAt,value
2023-05-02T00:04:57.950Z,9.00
2023-05-02T00:10:02.934Z,9.35
2023-05-02T00:15:10.431Z,8.70
2023-05-02T00:20:14.223Z,8.38
2023-05-02T00:25:17.623Z,8.23
2023-05-02T00:30:22.461Z,10.98
2023-05-02T00:35:25.814Z,8.07
2023-05-02T00:40:29.159Z,9.65
2023-05-02T00:45:34.002Z,7.40
2023-05-02T00:50:40.481Z,8.35
2023-05-02T00:55:44.219Z,8.45
2023-05-02T01:01:13.322Z,8.52
2023-05-02T01:06:36.643Z,7.07
2023-05-02T01:11:53.402Z,8.02
2023-05-02T01:16:59.372Z,7.63
2023-05-02T01:22:07.955Z,11.30
2023-05-02T01:27:24.057Z,8.30
2023-05-02T01:32:31.535Z,7.97
2023-05-02T01:37:37.629Z,8.30
2023-05-02T01:42:42.568Z,6.78
2023-05-02T01:47:48.807Z,9.75
2023-05-02T01:52:54.990Z,6.32
2023-05-02T01:57:58.753Z,8.55
2023-05-02T02:03:08.064Z,8.52
2023-05-02T02:08:11.566Z,9.73
2023-05-02T02:13:26.910Z,6.80
2023-05-02T02:18:38.149Z,7.57
2023-05-02T02:23:43.774Z,7.45
2023-05-02T02:28:48.216Z,7.25
2023-05-02T02:33:53.277Z,7.72
2023-05-02T02:39:11.955Z,6.15
2023-05-02T02:44:29.716Z,6.90
2023-05-02T02:49:52.519Z,8.10
2023-05-02T02:55:04.064Z,6.47
2023-05-02T03:00:17.671Z,7.95
2023-05-02T03:05:23.970Z,10.48
2023-05-02T03:10:27.701Z,8.25
2023-05-02T03:16:30.896Z,11.05
2023-05-02T03:21:36.423Z,10.38
2023-05-02T03:26:47.651Z,8.40
2023-05-02T03:31:53.672Z,6.53
2023-05-02T03:36:59.606Z,9.00
2023-05-02T03:42:03.251Z,8.88
2023-05-02T03:47:07.456Z,8.93
2023-05-02T03:52:17.148Z,6.63
2023-05-02T03:57:22.298Z,7.28
2023-05-02T04:02:26.463Z,7.45
2023-05-02T04:07:32.323Z,6.57
2023-05-02T04:12:41.333Z,8.77
2023-05-02T04:17:45.078Z,8.35
2023-05-02T04:22:51.697Z,7.97
2023-05-02T04:27:55.243Z,6.43
2023-05-02T04:33:00.668Z,8.75
2023-05-02T04:38:09.976Z,6.28
2023-05-02T04:43:14.417Z,5.95
2023-05-02T04:48:25.309Z,8.10
2023-05-02T04:53:30.963Z,6.18
2023-05-02T04:58:35.133Z,9.30
2023-05-02T05:03:41.748Z,7.80
2023-05-02T05:08:47.947Z,7.50
2023-05-02T05:13:53.102Z,8.93
2023-05-02T05:18:57.244Z,6.57
2023-05-02T05:24:02.317Z,8.15
2023-05-02T05:29:06.185Z,9.10
2023-05-02T05:34:15.676Z,7.57
2023-05-02T05:39:23.977Z,8.80
2023-05-02T05:44:29.647Z,8.30
2023-05-02T05:49:38.419Z,6.60
2023-05-02T05:54:45.364Z,6.90
2023-05-02T05:59:49.047Z,7.05
2023-05-02T06:04:53.593Z,7.18
2023-05-02T06:10:01.739Z,5.78
2023-05-02T06:15:09.360Z,7.70
2023-05-02T06:20:13.877Z,7.38
2023-05-02T06:25:18.890Z,6.88
2023-05-02T06:30:22.293Z,5.55
2023-05-02T06:35:25.764Z,5.63
2023-05-02T06:40:30.461Z,6.78
2023-05-02T06:45:33.819Z,9.10
2023-05-02T06:50:37.665Z,6.43
2023-05-02T06:55:42.533Z,6.20
2023-05-02T07:00:46.175Z,6.55
2023-05-02T07:05:49.776Z,6.78
2023-05-02T07:10:54.576Z,13.30
2023-05-02T07:15:58.372Z,11.10
2023-05-02T07:21:02.178Z,14.40
2023-05-02T07:26:07.215Z,10.63
2023-05-02T07:31:10.659Z,13.05
2023-05-02T07:36:14.134Z,14.95
2023-05-02T07:41:18.912Z,10.85
2023-05-02T07:46:22.500Z,12.93
2023-05-02T07:51:26.283Z,9.88
2023-05-02T07:56:31.814Z,9.05
2023-05-02T08:01:35.171Z,8.90
2023-05-02T08:06:38.715Z,7.05
2023-05-02T08:11:43.527Z,9.60
2023-05-02T08:16:46.934Z,10.00
2023-05-02T08:21:50.537Z,10.75
2023-05-02T08:26:55.255Z,7.47
2023-05-02T08:31:58.756Z,8.68
2023-05-02T08:37:02.227Z,9.55
2023-05-02T08:42:09.913Z,7.80
2023-05-02T08:52:21.393Z,9.45
2023-05-02T08:57:27.094Z,9.98
2023-05-02T09:02:53.541Z,8.38
2023-05-02T09:07:57.076Z,40.55
2023-05-02T09:13:33.018Z,25.10
2023-05-02T09:18:40.500Z,20.88
2023-05-02T09:23:47.394Z,54.15
2023-05-02T09:28:55.809Z,75.07
2023-05-02T09:34:09.991Z,49.55
2023-05-02T09:39:15.852Z,39.60
2023-05-02T09:44:23.023Z,36.75
2023-05-02T09:49:44.865Z,36.40
2023-05-02T09:54:50.655Z,41.25
2023-05-02T10:00:00.079Z,34.65
2023-05-02T10:05:05.674Z,32.53
2023-05-02T10:10:12.787Z,29.63
2023-05-02T10:15:19.766Z,28.63
2023-05-02T10:20:31.249Z,26.77
2023-05-02T10:25:35.591Z,27.10
2023-05-02T10:30:41.993Z,24.60
2023-05-02T10:35:47.547Z,22.13
2023-05-02T10:40:58.934Z,21.30
2023-05-02T10:46:04.122Z,23.00
2023-05-02T10:51:14.089Z,21.33
2023-05-02T10:56:22.157Z,54.42
2023-05-02T11:01:40.040Z,73.70
2023-05-02T11:07:21.075Z,49.45
2023-05-02T11:12:47.439Z,43.40
2023-05-02T11:18:02.804Z,40.03
2023-05-02T11:23:26.867Z,39.53
2023-05-02T11:28:47.777Z,35.17
2023-05-02T11:33:59.541Z,41.28
2023-05-02T11:39:05.689Z,32.03
2023-05-02T11:44:09.238Z,29.85
2023-05-02T11:49:15.147Z,27.92
2023-05-02T11:54:21.398Z,29.75
2023-05-02T11:59:24.764Z,27.70
2023-05-02T12:04:29.714Z,24.92
2023-05-02T12:09:33.088Z,21.23
2023-05-02T12:14:38.378Z,23.88
2023-05-02T12:19:43.259Z,23.83
2023-05-02T12:24:46.716Z,52.13
2023-05-02T12:29:50.797Z,51.40
2023-05-02T12:34:55.687Z,47.22
2023-05-02T12:40:02.935Z,42.15
2023-05-02T12:45:19.522Z,42.10
2023-05-02T12:50:39.336Z,34.38
2023-05-02T12:55:44.588Z,33.72
2023-05-02T13:00:49.648Z,32.72
2023-05-02T13:05:58.457Z,32.13
2023-05-02T13:11:03.907Z,30.67
2023-05-02T13:16:10.530Z,25.48
2023-05-02T13:21:17.015Z,21.50
2023-05-02T13:26:22.066Z,24.05
2023-05-02T13:31:26.691Z,22.02
2023-05-02T13:36:33.262Z,22.05
2023-05-02T13:41:37.283Z,18.85
2023-05-02T13:46:40.874Z,20.88
2023-05-02T13:51:45.670Z,17.60
2023-05-02T13:56:49.018Z,16.42
2023-05-02T14:01:52.445Z,16.00
2023-05-02T14:06:57.196Z,16.35
2023-05-02T14:12:01.994Z,14.82
2023-05-02T14:17:05.555Z,16.70
2023-05-02T14:22:10.275Z,14.93
2023-05-02T14:27:18.116Z,15.38
2023-05-02T14:32:21.638Z,13.45
2023-05-02T14:37:26.696Z,18.17
2023-05-02T14:42:30.062Z,16.17
2023-05-02T14:47:33.776Z,13.18
2023-05-02T14:52:38.575Z,10.93
2023-05-02T14:57:42.122Z,11.38
2023-05-02T15:02:45.556Z,12.95
2023-05-02T15:07:50.398Z,11.00
2023-05-02T15:12:53.763Z,12.27
2023-05-02T15:17:57.184Z,10.20
2023-05-02T15:23:03.561Z,12.80
2023-05-02T15:28:08.083Z,12.00
2023-05-02T15:33:11.576Z,10.50
2023-05-02T15:38:16.470Z,12.52
2023-05-02T15:43:19.831Z,10.02
2023-05-02T15:48:24.830Z,8.85
2023-05-02T15:53:30.331Z,11.88
2023-05-02T15:58:33.687Z,9.45
2023-05-02T16:03:37.160Z,9.63
2023-05-02T16:08:42.088Z,40.90
2023-05-02T16:13:45.572Z,59.55
2023-05-02T16:18:49.449Z,83.53
2023-05-02T16:23:55.019Z,77.18
2023-05-02T16:28:58.380Z,71.03
2023-05-02T16:34:02.962Z,67.45
2023-05-02T16:39:07.694Z,62.08
2023-05-02T16:44:11.324Z,52.63
2023-05-02T16:49:14.689Z,46.53
2023-05-02T16:54:19.465Z,42.05
2023-05-02T16:59:22.822Z,36.37
2023-05-02T17:04:26.329Z,37.55
2023-05-02T17:09:31.105Z,34.45
2023-05-02T17:14:34.985Z,28.60
2023-05-02T17:19:39.775Z,31.05
2023-05-02T17:24:48.205Z,29.40
2023-05-02T17:29:51.557Z,27.83
2023-05-02T17:34:56.821Z,23.13
2023-05-02T17:40:02.638Z,30.42
2023-05-02T17:45:08.611Z,27.40
2023-05-02T17:50:14.194Z,26.80
2023-05-02T17:55:19.661Z,23.17
2023-05-02T18:00:23.891Z,21.15
2023-05-02T18:05:28.044Z,19.20
2023-05-02T18:10:38.419Z,21.58
2023-05-02T18:15:41.969Z,19.20
2023-05-02T18:20:45.345Z,19.02
2023-05-02T18:25:50.085Z,18.83
2023-05-02T18:30:53.461Z,18.92
2023-05-02T18:35:56.879Z,21.45
2023-05-02T18:41:01.631Z,15.50
2023-05-02T18:46:05.058Z,17.40
2023-05-02T18:51:08.511Z,15.77
2023-05-02T18:56:16.610Z,13.35
2023-05-02T19:01:21.934Z,22.17
2023-05-02T19:06:26.166Z,21.45
2023-05-02T19:11:31.103Z,19.77
2023-05-02T19:16:35.009Z,22.10
2023-05-02T19:21:39.004Z,16.08
2023-05-02T19:26:44.122Z,18.52
2023-05-02T19:31:47.577Z,16.15
2023-05-02T19:36:51.110Z,19.40
2023-05-02T19:41:55.882Z,14.20
2023-05-02T19:46:59.394Z,19.23
2023-05-02T19:52:03.035Z,16.90
2023-05-02T19:57:07.781Z,12.75
2023-05-02T20:02:12.256Z,13.77
2023-05-02T20:07:15.715Z,15.20
2023-05-02T20:12:20.435Z,13.60
2023-05-02T20:17:23.881Z,11.90
2023-05-02T20:22:27.420Z,17.17
2023-05-02T20:27:32.154Z,13.55
2023-05-02T20:32:35.762Z,12.95
2023-05-02T20:37:39.208Z,10.63
2023-05-02T20:42:43.940Z,9.30
2023-05-02T20:47:48.061Z,11.52
2023-05-02T20:52:51.679Z,8.02
2023-05-02T20:57:56.536Z,11.63
2023-05-02T21:03:00.038Z,8.43
2023-05-02T21:08:03.505Z,9.18
2023-05-02T21:13:08.252Z,10.13
2023-05-02T21:18:11.843Z,8.60
2023-05-02T21:23:15.304Z,11.77
2023-05-02T21:28:20.104Z,8.77
2023-05-02T21:33:24.040Z,8.65
2023-05-02T21:38:28.213Z,6.57
2023-05-02T21:43:38.682Z,10.02
2023-05-02T21:48:42.199Z,7.18
2023-05-02T21:53:45.568Z,9.73
2023-05-02T21:58:51.338Z,7.30
2023-05-02T22:03:55.454Z,7.90
2023-05-02T22:08:58.849Z,7.55
2023-05-02T22:14:03.611Z,7.10
2023-05-02T22:19:07.459Z,10.75
2023-05-02T22:24:10.866Z,12.20
2023-05-02T22:29:15.741Z,6.90
2023-05-02T22:34:20.009Z,6.15
2023-05-02T22:39:23.414Z,7.78
2023-05-02T22:44:28.158Z,7.95
2023-05-02T22:49:33.046Z,7.22
2023-05-02T22:54:36.415Z,6.30
2023-05-02T22:59:41.169Z,8.30
2023-05-02T23:04:44.684Z,5.90
2023-05-02T23:09:48.133Z,8.15
2023-05-02T23:14:53.137Z,5.93
2023-05-02T23:19:56.552Z,7.38
2023-05-02T23:24:59.946Z,5.00
2023-05-02T23:30:06.615Z,6.22
2023-05-02T23:35:12.315Z,5.55
2023-05-02T23:40:15.745Z,4.45
2023-05-02T23:45:21.206Z,6.90
2023-05-02T23:50:24.585Z,5.95
2023-05-02T23:55:28.187Z,7.13
